createdAt,value
2023-10-29T00:00:20.497Z,97881.91
2023-10-29T00:02:53.034Z,97871.53
2023-10-29T00:05:21.717Z,97875.84
2023-10-29T00:07:51.556Z,97872.38
2023-10-29T00:10:20.156Z,97865.47
2023-10-29T00:12:49.606Z,97868.94
2023-10-29T00:15:18.434Z,97843.81
2023-10-29T00:17:47.449Z,97861.13
2023-10-29T00:20:15.988Z,97842.97
2023-10-29T00:22:44.721Z,97853.34
2023-10-29T00:25:14.692Z,97845.56
2023-10-29T00:27:43.267Z,97842.97
2023-10-29T00:30:12.896Z,97840.38
2023-10-29T00:32:41.359Z,97842.13
2023-10-29T00:35:11.222Z,97834.34
2023-10-29T00:37:39.723Z,97855.13
2023-10-29T00:40:10.588Z,97850.78
2023-10-29T00:42:40.620Z,97845.59
2023-10-29T00:45:10.569Z,97845.59
2023-10-29T00:47:39.574Z,97849.91
2023-10-29T00:50:09.346Z,97839.53
2023-10-29T00:52:37.716Z,97824.81
2023-10-29T00:55:07.065Z,97841.28
2023-10-29T00:57:35.715Z,97836.09
2023-10-29T01:00:07.757Z,97825.72
2023-10-29T01:02:37.354Z,97821.38
2023-10-29T01:05:06.794Z,97798.00
2023-10-29T01:07:35.727Z,97813.59
2023-10-29T01:10:04.195Z,97821.38
2023-10-29T01:12:32.583Z,97844.75
2023-10-29T01:15:02.504Z,97832.66
2023-10-29T01:17:32.636Z,97798.00
2023-10-29T01:20:01.214Z,97818.78
2023-10-29T01:22:29.648Z,97825.72
2023-10-29T01:24:58.110Z,97829.16
2023-10-29T01:27:25.568Z,97803.22
2023-10-29T01:29:54.210Z,97803.19
2023-10-29T01:32:22.784Z,97804.94
2023-10-29T01:34:52.675Z,97793.69
2023-10-29T01:37:21.163Z,97780.72
2023-10-29T01:39:49.630Z,97799.75
2023-10-29T01:42:18.113Z,97804.97
2023-10-29T01:44:46.807Z,97804.94
2023-10-29T01:47:15.618Z,97791.09
2023-10-29T01:49:43.997Z,97794.56
2023-10-29T01:52:14.011Z,97785.91
2023-10-29T01:54:43.260Z,97781.59
2023-10-29T01:57:11.729Z,97778.13
2023-10-29T01:59:40.135Z,97782.44
2023-10-29T02:02:08.586Z,97806.69
2023-10-29T02:04:37.225Z,97802.34
2023-10-29T02:07:06.024Z,97814.50
2023-10-29T02:09:35.965Z,97804.09
2023-10-29T02:12:05.331Z,97769.47
2023-10-29T02:14:35.821Z,97771.19
2023-10-29T02:17:04.420Z,97772.06
2023-10-29T02:19:32.836Z,97756.47
2023-10-29T02:22:03.354Z,97756.53
2023-10-29T02:24:31.854Z,97756.47
2023-10-29T02:27:00.219Z,97740.94
2023-10-29T02:29:28.713Z,97746.13
2023-10-29T02:31:57.131Z,97737.47
2023-10-29T02:34:25.526Z,97735.75
2023-10-29T02:36:54.027Z,97735.75
2023-10-29T02:39:23.788Z,97733.09
2023-10-29T02:41:52.209Z,97734.00
2023-10-29T02:44:20.846Z,97717.53
2023-10-29T02:46:49.244Z,97715.81
2023-10-29T02:49:17.660Z,97702.84
2023-10-29T02:51:46.921Z,97714.97
2023-10-29T02:54:15.358Z,97718.44
2023-10-29T02:56:45.357Z,97703.72
2023-10-29T02:59:13.794Z,97696.78
2023-10-29T03:01:42.491Z,97687.25
2023-10-29T03:04:12.180Z,97695.06
2023-10-29T03:06:43.211Z,97695.88
2023-10-29T03:09:12.494Z,97682.88
2023-10-29T03:11:40.544Z,97689.81
2023-10-29T03:14:10.430Z,97695.88
2023-10-29T03:16:39.448Z,97693.31
2023-10-29T03:19:08.279Z,97709.78
2023-10-29T03:21:37.282Z,97708.88
2023-10-29T03:24:06.890Z,97695.06
2023-10-29T03:26:35.314Z,97697.66
2023-10-29T03:29:04.809Z,97703.72
2023-10-29T03:31:35.808Z,97687.25
2023-10-29T03:34:04.633Z,97684.66
2023-10-29T03:36:34.224Z,97678.56
2023-10-29T03:39:02.719Z,97675.16
2023-10-29T03:41:31.908Z,97675.16
2023-10-29T03:44:00.311Z,97686.41
2023-10-29T03:46:29.154Z,97668.22
2023-10-29T03:48:59.320Z,97676.84
2023-10-29T03:51:29.776Z,97664.78
2023-10-29T03:53:58.838Z,97661.28
2023-10-29T03:56:27.364Z,97648.28
2023-10-29T03:58:55.876Z,97658.69
2023-10-29T04:01:28.065Z,97645.69
2023-10-29T04:03:58.035Z,97657.81
2023-10-29T04:06:26.564Z,97650.03
2023-10-29T04:08:56.344Z,97660.44
2023-10-29T04:11:24.689Z,97672.56
2023-10-29T04:13:53.217Z,97679.47
2023-10-29T04:16:21.684Z,97687.25
2023-10-29T04:18:50.175Z,97678.59
2023-10-29T04:21:19.975Z,97670.81
2023-10-29T04:23:48.561Z,97656.09
2023-10-29T04:26:17.236Z,97657.84
2023-10-29T04:28:46.116Z,97674.28
2023-10-29T04:31:14.663Z,97659.53
2023-10-29T04:33:46.221Z,97664.75
2023-10-29T04:36:22.509Z,97673.44
2023-10-29T04:38:51.439Z,97693.31
2023-10-29T04:41:20.421Z,97685.53
2023-10-29T04:43:49.180Z,97676.88
2023-10-29T04:46:17.818Z,97693.31
2023-10-29T04:48:46.511Z,97700.25
2023-10-29T04:51:14.884Z,97702.84
2023-10-29T04:53:44.645Z,97701.13
2023-10-29T04:56:13.077Z,97696.78
2023-10-29T04:58:41.429Z,97684.66
2023-10-29T05:01:09.836Z,97691.59
2023-10-29T05:03:38.564Z,97683.81
2023-10-29T05:06:07.538Z,97701.13
2023-10-29T05:08:36.102Z,97702.88
2023-10-29T05:11:06.115Z,97707.19
2023-10-29T05:13:34.535Z,97705.44
2023-10-29T05:16:03.310Z,97711.50
2023-10-29T05:18:31.876Z,97711.50
2023-10-29T05:21:02.870Z,97708.91
2023-10-29T05:23:32.100Z,97708.03
2023-10-29T05:26:00.522Z,97708.06
2023-10-29T05:28:30.394Z,97719.31
2023-10-29T05:30:58.970Z,97710.66
2023-10-29T05:33:27.407Z,97715.84
2023-10-29T05:35:58.643Z,97729.72
2023-10-29T05:38:27.218Z,97728.81
2023-10-29T05:40:55.693Z,97743.56
2023-10-29T05:43:24.113Z,97735.78
2023-10-29T05:45:53.884Z,97733.19
2023-10-29T05:48:22.384Z,97740.06
2023-10-29T05:50:50.774Z,97740.94
2023-10-29T05:53:19.251Z,97740.94
2023-10-29T05:55:47.680Z,97734.03
2023-10-29T05:58:16.265Z,97734.03
2023-10-29T06:00:44.718Z,97741.81
2023-10-29T06:03:14.694Z,97735.78
2023-10-29T06:05:43.216Z,97735.78
2023-10-29T06:08:11.693Z,97746.16
2023-10-29T06:10:40.167Z,97753.09
2023-10-29T06:13:08.601Z,97757.44
2023-10-29T06:15:37.087Z,97743.56
2023-10-29T06:18:07.688Z,97737.50
2023-10-29T06:20:42.648Z,97751.38
2023-10-29T06:23:11.438Z,97763.47
2023-10-29T06:25:40.247Z,97758.31
2023-10-29T06:28:09.121Z,97761.75
2023-10-29T06:30:37.594Z,97763.50
2023-10-29T06:33:06.338Z,97762.63
2023-10-29T06:35:34.940Z,97776.47
2023-10-29T06:38:05.128Z,97773.00
2023-10-29T06:40:33.543Z,97781.66
2023-10-29T06:43:02.746Z,97786.00
2023-10-29T06:45:31.232Z,97784.28
2023-10-29T06:47:59.972Z,97794.66
2023-10-29T06:50:28.533Z,97783.41
2023-10-29T06:52:57.176Z,97805.06
2023-10-29T06:55:26.944Z,97798.16
2023-10-29T06:57:55.392Z,97805.94
2023-10-29T07:00:23.816Z,97816.34
2023-10-29T07:02:52.539Z,97805.09
2023-10-29T07:05:22.042Z,97808.53
2023-10-29T07:07:50.576Z,97825.88
2023-10-29T07:10:19.293Z,97825.00
2023-10-29T07:12:49.352Z,97831.94
2023-10-29T07:15:18.196Z,97833.66
2023-10-29T07:17:46.577Z,97834.53
2023-10-29T07:20:15.081Z,97856.19
2023-10-29T07:22:43.667Z,97848.38
2023-10-29T07:25:12.736Z,97857.91
2023-10-29T07:27:41.133Z,97853.59
2023-10-29T07:30:12.213Z,97870.06
2023-10-29T07:32:40.609Z,97869.19
2023-10-29T07:35:09.882Z,97871.81
2023-10-29T07:37:38.325Z,97873.50
2023-10-29T07:40:08.875Z,97879.59
2023-10-29T07:42:37.322Z,97878.72
2023-10-29T07:45:07.004Z,97881.31
2023-10-29T07:47:36.965Z,97873.50
2023-10-29T07:50:07.297Z,97881.31
2023-10-29T07:52:40.974Z,97882.22
2023-10-29T07:55:10.834Z,97871.78
2023-10-29T07:57:40.406Z,97883.06
2023-10-29T08:00:11.402Z,97876.13
2023-10-29T08:02:45.012Z,97883.94
2023-10-29T08:05:13.843Z,97897.81
2023-10-29T08:07:42.857Z,97886.53
2023-10-29T08:10:12.780Z,97896.94
2023-10-29T08:12:41.203Z,97939.41
2023-10-29T08:15:10.896Z,97962.78
2023-10-29T08:17:40.926Z,97945.47
2023-10-29T08:20:12.837Z,97968.00
2023-10-29T08:22:42.247Z,97953.25
2023-10-29T08:25:12.937Z,97948.94
2023-10-29T08:27:41.435Z,97944.59
2023-10-29T08:30:11.446Z,97948.06
2023-10-29T08:32:40.051Z,97937.69
2023-10-29T08:35:10.739Z,97938.56
2023-10-29T08:37:39.101Z,97927.25
2023-10-29T08:40:09.398Z,97927.25
2023-10-29T08:42:38.490Z,97930.72
2023-10-29T08:45:08.400Z,97916.00
2023-10-29T08:47:38.117Z,97929.88
2023-10-29T08:50:07.722Z,97958.47
2023-10-29T08:52:38.401Z,97956.75
2023-10-29T08:55:08.049Z,97955.88
2023-10-29T08:57:36.760Z,97956.75
2023-10-29T09:00:06.203Z,97955.03
2023-10-29T09:02:34.718Z,97955.91
2023-10-29T09:05:03.269Z,97952.41
2023-10-29T09:07:31.822Z,97968.91
2023-10-29T09:10:01.857Z,97977.56
2023-10-29T09:12:30.289Z,97974.09
2023-10-29T09:14:59.140Z,97976.75
2023-10-29T09:17:27.756Z,97982.84
2023-10-29T09:19:56.532Z,97989.72
2023-10-29T09:22:25.036Z,97993.22
2023-10-29T09:24:53.840Z,97998.44
2023-10-29T09:27:23.853Z,97999.28
2023-10-29T09:29:52.579Z,98011.44
2023-10-29T09:32:21.083Z,98016.66
2023-10-29T09:34:49.686Z,98025.31
2023-10-29T09:37:18.242Z,98025.31
2023-10-29T09:39:46.697Z,98026.19
2023-10-29T09:42:19.545Z,98024.44
2023-10-29T09:44:55.047Z,98027.91
2023-10-29T09:47:24.758Z,98016.66
2023-10-29T09:49:53.504Z,98021.84
2023-10-29T09:52:26.793Z,98024.47
2023-10-29T09:54:59.279Z,98030.53
2023-10-29T09:57:28.303Z,98026.19
2023-10-29T09:59:58.182Z,98007.97
2023-10-29T10:02:27.361Z,98007.13
2023-10-29T10:04:57.586Z,98010.59
2023-10-29T10:07:27.514Z,98000.19
2023-10-29T10:09:57.230Z,98014.94
2023-10-29T10:12:26.576Z,98018.41
2023-10-29T10:15:07.453Z,97992.38
2023-10-29T10:17:35.933Z,98008.88
2023-10-29T10:20:11.450Z,98001.97
2023-10-29T10:22:40.432Z,98021.00
2023-10-29T10:25:17.922Z,98021.03
2023-10-29T10:27:53.456Z,98016.69
2023-10-29T10:30:31.664Z,98018.44
2023-10-29T10:33:12.522Z,98010.66
2023-10-29T10:35:43.039Z,98006.28
2023-10-29T10:38:11.985Z,98013.22
2023-10-29T10:40:41.071Z,98014.97
2023-10-29T10:43:10.324Z,98011.50
2023-10-29T10:45:40.162Z,98006.31
2023-10-29T10:48:09.413Z,97982.84
2023-10-29T10:50:39.384Z,97985.47
2023-10-29T10:53:09.196Z,97988.94
2023-10-29T10:55:51.301Z,97980.28
2023-10-29T10:58:27.400Z,97968.13
2023-10-29T11:01:00.126Z,97985.44
2023-10-29T11:03:33.295Z,97982.88
2023-10-29T11:06:02.395Z,97993.28
2023-10-29T11:08:31.014Z,98008.91
2023-10-29T11:11:01.029Z,98001.09
2023-10-29T11:13:29.671Z,98002.81
2023-10-29T11:15:59.538Z,97988.94
2023-10-29T11:18:33.791Z,98004.56
2023-10-29T11:21:04.989Z,98000.22
2023-10-29T11:23:35.806Z,98000.22
2023-10-29T11:26:22.599Z,97992.41
2023-10-29T11:28:52.822Z,98006.31
2023-10-29T11:31:23.965Z,98003.72
2023-10-29T11:34:35.700Z,97999.34
2023-10-29T11:37:40.264Z,97997.63
2023-10-29T11:40:32.450Z,98005.41
2023-10-29T11:43:17.921Z,98002.81
2023-10-29T11:46:00.555Z,98008.91
2023-10-29T11:48:34.624Z,98021.94
2023-10-29T11:51:27.612Z,98000.22
2023-10-29T11:53:57.229Z,97995.88
2023-10-29T11:56:29.208Z,97999.34
2023-10-29T11:59:06.794Z,97996.75
2023-10-29T12:01:37.014Z,97996.72
2023-10-29T12:04:10.502Z,97980.25
2023-10-29T12:06:44.273Z,97968.09
2023-10-29T12:09:20.352Z,97979.38
2023-10-29T12:11:50.426Z,97976.75
2023-10-29T12:14:40.722Z,97973.28
2023-10-29T12:17:09.751Z,97982.84
2023-10-29T12:19:41.498Z,98001.06
2023-10-29T12:22:19.242Z,98010.66
2023-10-29T12:24:49.686Z,98025.41
2023-10-29T12:27:19.990Z,98016.72
2023-10-29T12:29:48.593Z,98007.16
2023-10-29T12:32:18.426Z,98011.53
2023-10-29T12:34:53.779Z,98002.84
2023-10-29T12:37:24.369Z,98008.06
2023-10-29T12:39:56.092Z,98004.56
2023-10-29T12:42:25.219Z,97982.84
2023-10-29T12:44:55.464Z,97965.50
2023-10-29T12:47:24.864Z,97947.25
2023-10-29T12:50:04.892Z,97935.97
2023-10-29T12:52:33.448Z,97931.66
2023-10-29T12:55:01.921Z,97945.53
2023-10-29T12:57:30.360Z,97955.94
2023-10-29T12:59:58.820Z,97970.69
2023-10-29T13:02:28.588Z,97961.16
2023-10-29T13:04:57.249Z,97971.56
2023-10-29T13:07:28.206Z,97967.22
2023-10-29T13:10:01.041Z,97978.50
2023-10-29T13:12:29.397Z,97975.06
2023-10-29T13:14:57.790Z,97975.91
2023-10-29T13:17:26.343Z,97978.50
2023-10-29T13:19:54.786Z,97974.19
2023-10-29T13:22:23.960Z,97970.69
2023-10-29T13:24:53.883Z,97960.28
2023-10-29T13:27:22.477Z,97929.91
2023-10-29T13:29:50.982Z,97922.97
2023-10-29T13:32:21.037Z,97907.34
2023-10-29T13:34:50.056Z,97893.47
2023-10-29T13:37:19.313Z,97891.72
2023-10-29T13:39:47.726Z,97892.59
2023-10-29T13:42:19.678Z,97892.59
2023-10-29T13:44:48.350Z,97881.34
2023-10-29T13:47:16.908Z,97874.41
2023-10-29T13:49:45.423Z,97870.03
2023-10-29T13:52:14.215Z,97865.72
2023-10-29T13:54:44.136Z,97875.25
2023-10-29T13:57:12.673Z,97885.66
2023-10-29T13:59:42.669Z,97873.50
2023-10-29T14:02:11.150Z,97864.81
2023-10-29T14:04:39.482Z,97854.41
2023-10-29T14:07:08.003Z,97856.16
2023-10-29T14:09:36.345Z,97850.06
2023-10-29T14:12:05.616Z,97866.56
2023-10-29T14:14:34.049Z,97876.97
2023-10-29T14:17:06.262Z,97861.34
2023-10-29T14:19:36.393Z,97854.41
2023-10-29T14:22:05.423Z,97857.88
2023-10-29T14:24:33.909Z,97864.81
2023-10-29T14:27:02.341Z,97849.19
2023-10-29T14:29:30.781Z,97848.34
2023-10-29T14:31:59.279Z,97843.13
2023-10-29T14:34:29.181Z,97842.25
2023-10-29T14:36:57.580Z,97822.34
2023-10-29T14:39:26.339Z,97802.38
2023-10-29T14:41:54.872Z,97817.13
2023-10-29T14:44:23.367Z,97813.66
2023-10-29T14:46:51.935Z,97813.66
2023-10-29T14:49:20.404Z,97823.19
2023-10-29T14:51:50.442Z,97810.19
2023-10-29T14:54:20.087Z,97798.03
2023-10-29T14:56:48.966Z,97784.16
2023-10-29T14:59:17.391Z,97802.41
2023-10-29T15:01:46.332Z,97806.72
2023-10-29T15:04:14.919Z,97808.44
2023-10-29T15:06:45.889Z,97826.66
2023-10-29T15:09:17.031Z,97827.53
2023-10-29T15:11:45.651Z,97837.97
2023-10-29T15:14:14.081Z,97846.66
2023-10-29T15:16:42.512Z,97840.56
2023-10-29T15:21:40.357Z,97844.91
2023-10-29T15:24:09.636Z,97839.69
2023-10-29T15:26:39.416Z,97832.75
2023-10-29T15:29:07.703Z,97831.91
2023-10-29T15:31:36.166Z,97834.53
2023-10-29T15:34:04.748Z,97824.94
2023-10-29T15:36:33.117Z,97807.59
2023-10-29T15:39:01.678Z,97811.06
2023-10-29T15:41:30.113Z,97833.63
2023-10-29T15:43:59.848Z,97855.31
2023-10-29T15:46:28.494Z,97846.66
2023-10-29T15:48:57.100Z,97855.31
2023-10-29T15:51:26.936Z,97864.88
2023-10-29T15:53:55.814Z,97861.41
2023-10-29T15:56:25.866Z,97861.41
2023-10-29T15:58:54.481Z,97855.31
2023-10-29T16:01:24.434Z,97857.94
2023-10-29T16:03:52.937Z,97859.66
2023-10-29T16:06:21.355Z,97871.81
2023-10-29T16:08:49.888Z,97858.78
2023-10-29T16:11:24.125Z,97880.50
2023-10-29T16:13:52.706Z,97877.00
2023-10-29T16:16:21.103Z,97877.00
2023-10-29T16:18:51.452Z,97879.63
2023-10-29T16:21:20.531Z,97883.09
2023-10-29T16:23:49.008Z,97887.44
2023-10-29T16:26:17.686Z,97899.56
2023-10-29T16:28:46.598Z,97903.91
2023-10-29T16:31:19.467Z,97908.25
2023-10-29T16:33:48.234Z,97903.03
2023-10-29T16:36:18.201Z,97906.50
2023-10-29T16:38:46.796Z,97907.41
2023-10-29T16:41:17.225Z,97906.53
2023-10-29T16:43:48.381Z,97916.06
2023-10-29T16:46:19.537Z,97916.06
2023-10-29T16:48:49.186Z,97917.78
2023-10-29T16:51:19.558Z,97912.59
2023-10-29T16:53:48.207Z,97917.81
2023-10-29T16:56:17.621Z,97916.94
2023-10-29T16:58:46.043Z,97929.06
2023-10-29T17:01:14.886Z,97929.06
2023-10-29T17:03:43.914Z,97928.19
2023-10-29T17:06:12.472Z,97932.53
2023-10-29T17:08:42.447Z,97944.69
2023-10-29T17:11:11.087Z,97954.25
2023-10-29T17:13:39.510Z,97959.44
2023-10-29T17:16:08.457Z,97957.69
2023-10-29T17:18:37.189Z,97962.91
2023-10-29T17:21:06.552Z,97975.03
2023-10-29T17:23:35.491Z,97972.47
2023-10-29T17:26:05.672Z,97971.56
2023-10-29T17:28:34.028Z,97979.38
2023-10-29T17:31:05.552Z,97983.72
2023-10-29T17:33:34.083Z,97995.84
2023-10-29T17:36:02.557Z,97990.66
2023-10-29T17:38:31.211Z,97995.88
2023-10-29T17:40:59.799Z,98001.91
2023-10-29T17:43:29.668Z,98016.66
2023-10-29T17:45:58.383Z,98016.66
2023-10-29T17:48:30.011Z,98010.59
2023-10-29T17:50:59.109Z,98020.13
2023-10-29T17:53:28.745Z,98023.59
2023-10-29T17:55:57.324Z,98025.31
2023-10-29T17:58:25.778Z,98025.31
2023-10-29T18:00:55.861Z,98025.31
2023-10-29T18:03:24.583Z,98020.09
2023-10-29T18:05:53.461Z,98023.59
2023-10-29T18:08:22.388Z,98017.50
2023-10-29T18:10:50.980Z,98016.63
2023-10-29T18:13:19.432Z,98021.84
2023-10-29T18:15:48.015Z,98035.69
2023-10-29T18:18:18.048Z,98037.44
2023-10-29T18:20:46.646Z,98040.91
2023-10-29T18:23:15.221Z,98038.31
2023-10-29T18:25:43.597Z,98036.56
2023-10-29T18:28:12.103Z,98035.69
2023-10-29T18:30:40.502Z,98038.28
2023-10-29T18:33:09.165Z,98039.16
2023-10-29T18:35:39.035Z,98053.91
2023-10-29T18:38:08.787Z,98058.19
2023-10-29T18:40:37.312Z,98059.06
2023-10-29T18:43:05.665Z,98063.38
2023-10-29T18:45:34.922Z,98059.91
2023-10-29T18:48:03.686Z,98065.13
2023-10-29T18:50:33.607Z,98070.31
2023-10-29T18:53:04.212Z,98077.25
2023-10-29T18:55:32.725Z,98085.91
2023-10-29T18:58:01.156Z,98083.31
2023-10-29T19:00:29.894Z,98078.13
2023-10-29T19:02:58.540Z,98093.72
2023-10-29T19:05:27.074Z,98090.25
2023-10-29T19:07:56.055Z,98087.66
2023-10-29T19:10:25.786Z,98104.97
2023-10-29T19:12:54.325Z,98100.66
2023-10-29T19:15:23.019Z,98108.44
2023-10-29T19:17:51.594Z,98103.22
2023-10-29T19:20:20.442Z,98118.84
2023-10-29T19:22:48.830Z,98117.97
2023-10-29T19:25:17.529Z,98127.50
2023-10-29T19:27:47.601Z,98131.84
2023-10-29T19:30:16.143Z,98140.50
2023-10-29T19:32:45.115Z,98138.78
2023-10-29T19:35:13.470Z,98144.84
2023-10-29T19:37:41.922Z,98143.13
2023-10-29T19:40:11.610Z,98143.97
2023-10-29T19:42:40.168Z,98167.38
2023-10-29T19:45:11.843Z,98168.25
2023-10-29T19:47:40.624Z,98178.66
2023-10-29T19:50:10.498Z,98167.41
2023-10-29T19:52:38.960Z,98185.63
2023-10-29T19:55:09.078Z,98185.59
2023-10-29T19:57:37.703Z,98189.09
2023-10-29T20:00:08.159Z,98190.81
2023-10-29T20:02:37.955Z,98202.09
2023-10-29T20:05:08.339Z,98214.25
2023-10-29T20:07:36.849Z,98228.97
2023-10-29T20:10:08.912Z,98230.78
2023-10-29T20:12:39.305Z,98233.38
2023-10-29T20:15:10.523Z,98235.09
2023-10-29T20:17:40.612Z,98233.38
2023-10-29T20:20:12.314Z,98250.75
2023-10-29T20:22:40.769Z,98242.91
2023-10-29T20:25:10.108Z,98245.53
2023-10-29T20:27:38.519Z,98255.06
2023-10-29T20:30:08.496Z,98262.00
2023-10-29T20:32:36.996Z,98260.25
2023-10-29T20:35:07.552Z,98266.34
2023-10-29T20:37:35.953Z,98266.31
2023-10-29T20:40:04.717Z,98275.00
2023-10-29T20:42:33.361Z,98275.00
2023-10-29T20:45:01.820Z,98275.88
2023-10-29T20:47:30.222Z,98269.81
2023-10-29T20:49:59.191Z,98268.06
2023-10-29T20:52:28.934Z,98276.72
2023-10-29T20:54:57.282Z,98283.66
2023-10-29T20:57:25.848Z,98283.66
2023-10-29T20:59:54.545Z,98292.31
2023-10-29T21:02:23.560Z,98289.72
2023-10-29T21:04:54.009Z,98302.72
2023-10-29T21:07:22.522Z,98300.13
2023-10-29T21:09:52.362Z,98299.25
2023-10-29T21:12:21.047Z,98307.00
2023-10-29T21:14:49.479Z,98307.88
2023-10-29T21:17:17.926Z,98296.59
2023-10-29T21:19:46.614Z,98303.53
2023-10-29T21:22:15.401Z,98302.66
2023-10-29T21:24:43.806Z,98304.38
2023-10-29T21:27:13.846Z,98313.91
2023-10-29T21:29:42.454Z,98306.94
2023-10-29T21:32:10.963Z,98318.19
2023-10-29T21:34:39.410Z,98313.00
2023-10-29T21:37:07.916Z,98312.97
2023-10-29T21:39:36.397Z,98325.09
2023-10-29T21:42:05.602Z,98336.41
2023-10-29T21:44:35.528Z,98332.91
2023-10-29T21:47:04.033Z,98334.63
2023-10-29T21:49:35.067Z,98334.63
2023-10-29T21:52:03.647Z,98341.56
2023-10-29T21:54:34.489Z,98350.22
2023-10-29T21:57:04.172Z,98349.34
2023-10-29T21:59:34.079Z,98348.47
2023-10-29T22:02:02.573Z,98346.69
2023-10-29T22:04:32.224Z,98344.09
2023-10-29T22:07:00.768Z,98338.91
2023-10-29T22:09:29.204Z,98345.81
2023-10-29T22:11:57.674Z,98352.75
2023-10-29T22:14:26.117Z,98361.41
2023-10-29T22:16:56.320Z,98359.69
2023-10-29T22:19:24.697Z,98365.75
2023-10-29T22:21:53.307Z,98368.34
2023-10-29T22:24:22.032Z,98364.00
2023-10-29T22:26:51.057Z,98364.84
2023-10-29T22:29:22.484Z,98367.44
2023-10-29T22:31:51.182Z,98382.19
2023-10-29T22:34:21.052Z,98368.28
2023-10-29T22:36:49.720Z,98370.88
2023-10-29T22:39:18.922Z,98376.97
2023-10-29T22:41:47.384Z,98376.97
2023-10-29T22:44:15.891Z,98370.91
2023-10-29T22:46:47.923Z,98387.38
2023-10-29T22:49:20.039Z,98387.38
2023-10-29T22:51:49.746Z,98389.97
2023-10-29T22:54:18.809Z,98389.06
2023-10-29T22:56:47.332Z,98397.72
2023-10-29T22:59:15.747Z,98397.69
2023-10-29T23:01:44.184Z,98399.44
2023-10-29T23:04:12.658Z,98393.38
2023-10-29T23:06:41.197Z,98412.44
2023-10-29T23:09:11.173Z,98420.22
2023-10-29T23:11:39.673Z,98425.41
2023-10-29T23:14:08.164Z,98425.41
2023-10-29T23:16:36.773Z,98417.59
2023-10-29T23:19:05.334Z,98414.16
2023-10-29T23:21:33.759Z,98419.34
2023-10-29T23:24:02.335Z,98416.72
2023-10-29T23:26:32.579Z,98426.25
2023-10-29T23:29:01.014Z,98428.84
2023-10-29T23:31:29.661Z,98437.50
2023-10-29T23:33:58.473Z,98420.19
2023-10-29T23:36:27.024Z,98412.34
2023-10-29T23:38:55.712Z,98401.94
2023-10-29T23:41:24.104Z,98399.34
2023-10-29T23:43:54.337Z,98413.25
2023-10-29T23:46:22.755Z,98415.81
2023-10-29T23:48:51.200Z,98413.22
2023-10-29T23:51:19.629Z,98408.84
2023-10-29T23:53:48.176Z,98419.28
2023-10-29T23:56:16.767Z,98414.03
2023-10-29T23:58:45.115Z,98424.47
